createdAt,value
2019-01-29T00:01:43.398Z,100.00
2019-01-29T00:04:15.310Z,100.00
2019-01-29T00:06:47.024Z,100.00
2019-01-29T00:09:19.423Z,100.00
2019-01-29T00:11:51.161Z,100.00
2019-01-29T00:14:23.461Z,100.00
2019-01-29T00:16:55.404Z,100.00
2019-01-29T00:19:27.939Z,100.00
2019-01-29T00:21:59.642Z,100.00
2019-01-29T00:24:31.351Z,100.00
2019-01-29T00:27:03.157Z,100.00
2019-01-29T00:29:35.890Z,100.00
2019-01-29T00:32:07.967Z,100.00
2019-01-29T00:34:39.822Z,100.00
2019-01-29T00:37:11.886Z,100.00
2019-01-29T00:39:43.703Z,100.00
2019-01-29T00:42:15.260Z,100.00
2019-01-29T00:44:46.953Z,100.00
2019-01-29T00:47:18.648Z,100.00
2019-01-29T00:49:50.303Z,100.00
2019-01-29T00:52:21.996Z,100.00
2019-01-29T00:54:53.687Z,100.00
2019-01-29T00:57:25.477Z,100.00
2019-01-29T00:59:57.226Z,100.00
2019-01-29T01:02:29.015Z,100.00
2019-01-29T01:05:00.793Z,100.00
2019-01-29T01:07:32.516Z,100.00
2019-01-29T01:10:04.257Z,100.00
2019-01-29T01:12:35.996Z,100.00
2019-01-29T01:15:09.064Z,100.00
2019-01-29T01:17:40.670Z,100.00
2019-01-29T01:20:15.304Z,100.00
2019-01-29T01:22:51.229Z,100.00
2019-01-29T01:25:20.837Z,100.00
2019-01-29T01:27:52.685Z,100.00
2019-01-29T01:30:24.950Z,100.00
2019-01-29T01:32:56.598Z,100.00
2019-01-29T01:35:28.040Z,100.00
2019-01-29T01:38:00.666Z,100.00
2019-01-29T01:40:32.336Z,100.00
2019-01-29T01:43:04.125Z,100.00
2019-01-29T01:45:35.990Z,100.00
2019-01-29T01:48:07.760Z,100.00
2019-01-29T01:50:39.474Z,100.00
2019-01-29T01:53:11.870Z,100.00
2019-01-29T01:55:43.495Z,100.00
2019-01-29T01:58:15.303Z,100.00
2019-01-29T02:00:47.097Z,100.00
2019-01-29T02:03:18.649Z,100.00
2019-01-29T02:05:50.286Z,100.00
2019-01-29T02:08:22.796Z,100.00
2019-01-29T02:10:54.503Z,100.00
2019-01-29T02:13:26.105Z,100.00
2019-01-29T02:15:58.025Z,100.00
2019-01-29T02:18:29.793Z,100.00
2019-01-29T02:21:01.971Z,100.00
2019-01-29T02:23:34.188Z,100.00
2019-01-29T02:26:05.763Z,100.00
2019-01-29T02:28:37.371Z,100.00
2019-01-29T02:31:09.027Z,100.00
2019-01-29T02:33:40.624Z,100.00
2019-01-29T02:36:12.322Z,100.00
2019-01-29T02:38:44.170Z,100.00
2019-01-29T02:41:15.901Z,100.00
2019-01-29T02:43:47.448Z,100.00
2019-01-29T02:46:19.505Z,100.00
2019-01-29T02:48:51.236Z,100.00
2019-01-29T02:51:22.944Z,100.00
2019-01-29T02:53:55.067Z,100.00
2019-01-29T02:56:26.958Z,100.00
2019-01-29T02:58:58.731Z,100.00
2019-01-29T03:01:30.553Z,100.00
2019-01-29T03:04:02.586Z,100.00
2019-01-29T03:06:34.107Z,100.00
2019-01-29T03:09:08.544Z,100.00
2019-01-29T03:11:40.230Z,100.00
2019-01-29T03:14:11.829Z,100.00
2019-01-29T03:16:43.489Z,100.00
2019-01-29T03:19:15.217Z,100.00
2019-01-29T03:21:46.955Z,100.00
2019-01-29T03:24:19.004Z,100.00
2019-01-29T03:26:53.579Z,100.00
2019-01-29T03:29:25.450Z,100.00
2019-01-29T03:31:57.219Z,100.00
2019-01-29T03:34:28.920Z,100.00
2019-01-29T03:37:00.678Z,100.00
2019-01-29T03:39:32.377Z,100.00
2019-01-29T03:42:04.168Z,100.00
2019-01-29T03:44:35.748Z,100.00
2019-01-29T03:47:07.478Z,100.00
2019-01-29T03:49:39.239Z,100.00
2019-01-29T03:52:10.920Z,100.00
2019-01-29T03:54:42.725Z,100.00
2019-01-29T03:57:14.436Z,100.00
2019-01-29T03:59:46.160Z,100.00
2019-01-29T04:02:18.000Z,100.00
2019-01-29T04:04:49.963Z,100.00
2019-01-29T04:07:21.821Z,100.00
2019-01-29T04:09:53.659Z,100.00
2019-01-29T04:12:25.473Z,100.00
2019-01-29T04:14:57.074Z,100.00
2019-01-29T04:17:29.640Z,100.00
2019-01-29T04:20:01.465Z,100.00
2019-01-29T04:22:34.063Z,100.00
2019-01-29T04:25:06.369Z,100.00
2019-01-29T04:27:38.444Z,100.00
2019-01-29T04:30:13.273Z,100.00
2019-01-29T04:32:45.307Z,100.00
2019-01-29T04:35:17.072Z,100.00
2019-01-29T04:37:48.997Z,100.00
2019-01-29T04:40:21.872Z,100.00
2019-01-29T04:42:53.791Z,100.00
2019-01-29T04:45:25.506Z,100.00
2019-01-29T04:47:57.131Z,100.00
2019-01-29T04:50:28.934Z,100.00
2019-01-29T04:53:00.564Z,100.00
2019-01-29T04:55:51.015Z,100.00
2019-01-29T04:58:23.760Z,100.00
2019-01-29T05:00:55.444Z,100.00
2019-01-29T05:03:27.776Z,100.00
2019-01-29T05:06:01.880Z,100.00
2019-01-29T05:08:33.971Z,100.00
2019-01-29T05:11:05.666Z,100.00
2019-01-29T05:13:37.548Z,100.00
2019-01-29T05:16:09.440Z,100.00
2019-01-29T05:18:41.068Z,100.00
2019-01-29T05:21:12.873Z,100.00
2019-01-29T05:23:44.451Z,100.00
2019-01-29T05:26:16.299Z,100.00
2019-01-29T05:28:47.963Z,100.00
2019-01-29T05:31:19.918Z,100.00
2019-01-29T05:33:51.787Z,100.00
2019-01-29T05:36:24.764Z,100.00
2019-01-29T05:38:59.339Z,100.00
2019-01-29T05:41:31.131Z,100.00
2019-01-29T05:44:02.944Z,100.00
2019-01-29T05:46:34.848Z,100.00
2019-01-29T05:49:06.635Z,100.00
2019-01-29T05:51:40.542Z,100.00
2019-01-29T05:54:16.367Z,100.00
2019-01-29T05:56:45.214Z,100.00
2019-01-29T05:59:17.017Z,100.00
2019-01-29T06:01:48.728Z,100.00
2019-01-29T06:04:21.460Z,100.00
2019-01-29T06:06:53.637Z,100.00
2019-01-29T06:09:26.267Z,100.00
2019-01-29T06:11:58.191Z,100.00
2019-01-29T06:14:29.899Z,100.00
2019-01-29T06:17:01.852Z,100.00
2019-01-29T06:19:33.595Z,100.00
2019-01-29T06:22:05.665Z,100.00
2019-01-29T06:24:37.872Z,100.00
2019-01-29T06:27:09.444Z,100.00
2019-01-29T06:29:41.332Z,100.00
2019-01-29T06:32:13.096Z,100.00
2019-01-29T06:34:44.929Z,100.00
2019-01-29T06:37:16.674Z,100.00
2019-01-29T06:39:48.465Z,100.00
2019-01-29T06:42:20.405Z,100.00
2019-01-29T06:44:52.306Z,100.00
2019-01-29T06:47:24.481Z,100.00
2019-01-29T06:49:56.236Z,100.00
2019-01-29T06:52:27.820Z,100.00
2019-01-29T06:54:59.351Z,100.00
2019-01-29T06:57:31.170Z,100.00
2019-01-29T07:00:03.184Z,100.00
2019-01-29T07:02:34.967Z,100.00
2019-01-29T07:05:07.859Z,100.00
2019-01-29T07:07:42.568Z,100.00
2019-01-29T07:10:16.327Z,100.00
2019-01-29T07:12:48.446Z,100.00
2019-01-29T07:15:56.177Z,100.00
2019-01-29T07:18:46.945Z,100.00
2019-01-29T07:21:18.500Z,100.00
2019-01-29T07:23:51.356Z,100.00
2019-01-29T07:26:23.446Z,100.00
2019-01-29T07:28:55.417Z,100.00
2019-01-29T07:31:27.827Z,100.00
2019-01-29T07:34:00.207Z,100.00
2019-01-29T07:36:31.950Z,100.00
2019-01-29T07:39:04.939Z,100.00
2019-01-29T07:41:36.765Z,100.00
2019-01-29T07:44:08.679Z,100.00
2019-01-29T07:46:41.099Z,100.00
2019-01-29T07:49:12.909Z,100.00
2019-01-29T07:51:45.082Z,100.00
2019-01-29T07:54:17.057Z,100.00
2019-01-29T07:56:49.421Z,100.00
2019-01-29T07:59:32.637Z,100.00
2019-01-29T08:01:54.746Z,100.00
2019-01-29T08:04:26.403Z,100.00
2019-01-29T08:06:58.248Z,100.00
2019-01-29T08:09:33.097Z,100.00
2019-01-29T08:12:04.885Z,100.00
2019-01-29T08:14:36.887Z,100.00
2019-01-29T08:17:09.171Z,100.00
2019-01-29T08:19:40.971Z,100.00
2019-01-29T08:22:13.400Z,100.00
2019-01-29T08:24:52.068Z,100.00
2019-01-29T08:27:21.913Z,100.00
2019-01-29T08:29:53.582Z,99.72
2019-01-29T08:32:26.224Z,99.02
2019-01-29T08:34:58.119Z,96.15
2019-01-29T08:37:29.966Z,88.63
2019-01-29T08:40:01.682Z,82.66
2019-01-29T08:42:33.543Z,79.13
2019-01-29T08:45:06.364Z,75.80
2019-01-29T08:47:38.217Z,71.37
2019-01-29T08:50:14.918Z,71.25
2019-01-29T08:52:46.601Z,75.62
2019-01-29T08:55:18.335Z,79.08
2019-01-29T08:57:50.270Z,80.81
2019-01-29T09:00:22.119Z,77.17
2019-01-29T09:02:54.372Z,73.16
2019-01-29T09:05:26.650Z,63.69
2019-01-29T09:07:59.201Z,60.79
2019-01-29T09:10:30.864Z,58.13
2019-01-29T09:13:02.893Z,55.34
2019-01-29T09:15:35.616Z,55.79
2019-01-29T09:18:07.665Z,58.63
2019-01-29T09:20:39.535Z,54.82
2019-01-29T09:23:11.571Z,50.82
2019-01-29T09:25:43.450Z,53.75
2019-01-29T09:28:18.477Z,52.22
2019-01-29T09:30:48.607Z,54.52
2019-01-29T09:33:21.394Z,55.57
2019-01-29T09:35:53.804Z,60.17
2019-01-29T09:38:25.883Z,53.78
2019-01-29T09:40:57.654Z,51.20
2019-01-29T09:43:29.379Z,47.96
2019-01-29T09:46:01.418Z,49.36
2019-01-29T09:48:33.241Z,54.51
2019-01-29T09:51:05.372Z,56.83
2019-01-29T09:53:38.452Z,52.11
2019-01-29T09:56:10.496Z,57.50
2019-01-29T09:58:42.493Z,58.70
2019-01-29T10:01:14.553Z,50.96
2019-01-29T10:03:47.108Z,46.52
2019-01-29T10:06:19.395Z,42.88
2019-01-29T10:08:51.853Z,38.75
2019-01-29T10:11:24.829Z,39.06
2019-01-29T10:13:57.840Z,36.96
2019-01-29T10:16:30.659Z,39.15
2019-01-29T10:19:02.868Z,42.25
2019-01-29T10:21:34.979Z,45.15
2019-01-29T10:24:07.503Z,44.12
2019-01-29T10:26:39.501Z,42.52
2019-01-29T10:29:11.606Z,43.99
2019-01-29T10:31:43.735Z,43.66
2019-01-29T10:34:16.194Z,45.63
2019-01-29T10:36:48.319Z,43.74
2019-01-29T10:39:20.592Z,39.76
2019-01-29T10:41:52.762Z,44.13
2019-01-29T10:44:25.814Z,50.36
2019-01-29T10:46:58.081Z,52.66
2019-01-29T10:49:30.390Z,56.98
2019-01-29T10:52:03.320Z,60.31
2019-01-29T10:54:37.780Z,59.49
2019-01-29T10:57:10.321Z,61.73
2019-01-29T10:59:42.190Z,62.57
2019-01-29T11:02:14.414Z,64.00
2019-01-29T11:04:49.482Z,63.71
2019-01-29T11:07:21.781Z,66.45
2019-01-29T11:09:53.968Z,67.49
2019-01-29T11:12:25.969Z,68.70
2019-01-29T11:14:57.725Z,67.35
2019-01-29T11:17:31.435Z,67.14
2019-01-29T11:20:05.491Z,66.16
2019-01-29T11:22:37.524Z,68.44
2019-01-29T11:25:13.960Z,68.59
2019-01-29T11:27:45.851Z,68.34
2019-01-29T11:30:21.267Z,67.77
2019-01-29T11:32:53.785Z,67.14
2019-01-29T11:35:26.004Z,67.94
2019-01-29T11:37:58.317Z,68.10
2019-01-29T11:40:31.668Z,67.44
2019-01-29T11:43:03.827Z,66.12
2019-01-29T11:45:46.563Z,66.40
2019-01-29T11:48:18.624Z,65.06
2019-01-29T11:50:50.686Z,64.19
2019-01-29T11:53:23.033Z,63.85
2019-01-29T11:55:55.245Z,62.86
2019-01-29T11:58:27.448Z,56.09
2019-01-29T12:01:10.231Z,55.09
2019-01-29T12:03:43.071Z,49.14
2019-01-29T12:06:15.083Z,46.05
2019-01-29T12:08:47.297Z,44.51
2019-01-29T12:11:20.389Z,47.17
2019-01-29T12:13:55.523Z,45.57
2019-01-29T12:16:27.811Z,48.86
2019-01-29T12:18:59.499Z,51.04
2019-01-29T12:21:31.807Z,52.74
2019-01-29T12:24:03.492Z,54.09
2019-01-29T12:26:35.414Z,55.41
2019-01-29T12:29:07.657Z,55.87
2019-01-29T12:31:39.740Z,56.22
2019-01-29T12:34:11.643Z,51.99
2019-01-29T12:36:43.722Z,46.71
2019-01-29T12:39:16.931Z,44.70
2019-01-29T12:41:48.747Z,44.01
2019-01-29T12:44:22.097Z,39.41
2019-01-29T12:46:54.574Z,36.49
2019-01-29T12:49:27.553Z,37.41
2019-01-29T12:52:20.995Z,40.39
2019-01-29T12:54:52.886Z,41.96
2019-01-29T12:57:25.017Z,44.46
2019-01-29T12:59:57.668Z,44.93
2019-01-29T13:02:29.672Z,46.78
2019-01-29T13:05:03.018Z,45.19
2019-01-29T13:07:34.965Z,46.96
2019-01-29T13:10:11.676Z,48.52
2019-01-29T13:12:43.431Z,50.14
2019-01-29T13:15:18.683Z,50.71
2019-01-29T13:17:50.721Z,51.69
2019-01-29T13:20:22.783Z,53.22
2019-01-29T13:22:55.111Z,54.18
2019-01-29T13:25:27.100Z,55.24
2019-01-29T13:27:59.585Z,55.41
2019-01-29T13:30:34.222Z,54.62
2019-01-29T13:33:14.232Z,51.37
2019-01-29T13:35:46.558Z,45.45
2019-01-29T13:38:21.434Z,43.95
2019-01-29T13:40:53.447Z,44.42
2019-01-29T13:43:25.443Z,47.17
2019-01-29T13:45:58.434Z,50.01
2019-01-29T13:48:30.537Z,52.79
2019-01-29T13:51:03.852Z,54.47
2019-01-29T13:53:36.099Z,55.35
2019-01-29T13:56:08.248Z,55.08
2019-01-29T13:58:40.471Z,55.43
2019-01-29T14:01:12.389Z,54.87
2019-01-29T14:03:44.122Z,56.25
2019-01-29T14:06:16.299Z,54.72
2019-01-29T14:08:49.028Z,49.39
2019-01-29T14:11:21.495Z,45.99
2019-01-29T14:13:53.599Z,42.55
2019-01-29T14:16:26.544Z,40.49
2019-01-29T14:18:58.904Z,39.04
2019-01-29T14:21:30.781Z,39.59
2019-01-29T14:24:02.722Z,41.79
2019-01-29T14:26:34.936Z,42.51
2019-01-29T14:29:07.235Z,45.88
2019-01-29T14:31:39.100Z,47.98
2019-01-29T14:34:11.852Z,50.47
2019-01-29T14:36:44.429Z,51.58
2019-01-29T14:40:23.017Z,53.05
2019-01-29T14:42:58.601Z,53.37
2019-01-29T14:45:33.342Z,54.19
2019-01-29T14:48:05.513Z,54.75
2019-01-29T14:50:38.061Z,55.02
2019-01-29T14:53:12.026Z,55.83
2019-01-29T14:55:45.645Z,56.16
2019-01-29T14:58:17.704Z,54.60
2019-01-29T15:00:51.711Z,52.91
2019-01-29T15:03:24.776Z,53.29
2019-01-29T15:05:58.644Z,53.69
2019-01-29T15:08:31.863Z,54.46
2019-01-29T15:11:05.960Z,54.83
2019-01-29T15:13:38.909Z,55.53
2019-01-29T15:16:33.997Z,56.45
2019-01-29T15:19:13.196Z,57.33
2019-01-29T15:21:45.916Z,58.04
2019-01-29T15:24:21.362Z,57.70
2019-01-29T15:26:54.908Z,58.24
2019-01-29T15:29:27.962Z,57.82
2019-01-29T15:32:01.080Z,57.54
2019-01-29T15:34:41.755Z,55.41
2019-01-29T15:37:15.448Z,54.96
2019-01-29T15:39:49.226Z,54.64
2019-01-29T15:42:23.869Z,53.77
2019-01-29T15:44:56.361Z,52.50
2019-01-29T15:47:30.430Z,51.97
2019-01-29T15:50:03.347Z,51.72
2019-01-29T15:52:38.619Z,51.60
2019-01-29T15:55:15.542Z,52.19
2019-01-29T15:57:48.549Z,53.21
2019-01-29T16:00:25.718Z,53.78
2019-01-29T16:02:59.508Z,54.39
2019-01-29T16:05:32.365Z,56.28
2019-01-29T16:08:04.968Z,58.45
2019-01-29T16:10:39.847Z,60.10
2019-01-29T16:13:12.742Z,63.31
2019-01-29T16:15:45.660Z,65.23
2019-01-29T16:18:17.958Z,66.73
2019-01-29T16:20:49.822Z,68.45
2019-01-29T16:23:22.181Z,70.71
2019-01-29T16:25:54.274Z,71.70
2019-01-29T16:28:28.312Z,72.37
2019-01-29T16:31:02.610Z,73.48
2019-01-29T16:33:37.039Z,74.47
2019-01-29T16:36:09.970Z,75.72
2019-01-29T16:38:43.432Z,76.71
2019-01-29T16:41:16.301Z,77.70
2019-01-29T16:43:50.666Z,78.83
2019-01-29T16:46:22.978Z,79.81
2019-01-29T16:48:55.128Z,80.66
2019-01-29T16:51:27.343Z,81.51
2019-01-29T16:54:00.438Z,82.51
2019-01-29T16:56:32.584Z,84.17
2019-01-29T16:59:05.175Z,86.04
2019-01-29T17:01:37.753Z,87.59
2019-01-29T17:04:11.096Z,88.59
2019-01-29T17:06:48.084Z,89.89
2019-01-29T17:09:21.845Z,90.99
2019-01-29T17:11:56.913Z,92.78
2019-01-29T17:14:29.290Z,94.02
2019-01-29T17:17:02.401Z,95.25
2019-01-29T17:19:37.278Z,95.99
2019-01-29T17:22:10.121Z,96.19
2019-01-29T17:24:43.288Z,96.37
2019-01-29T17:27:17.906Z,96.92
2019-01-29T17:29:52.785Z,97.18
2019-01-29T17:32:30.432Z,98.07
2019-01-29T17:34:59.728Z,98.51
2019-01-29T17:37:32.186Z,99.43
2019-01-29T17:40:04.886Z,99.74
2019-01-29T17:42:57.585Z,100.00
2019-01-29T17:45:33.374Z,100.00
2019-01-29T17:48:06.136Z,99.93
2019-01-29T17:50:42.218Z,100.00
2019-01-29T17:53:14.715Z,100.00
2019-01-29T17:55:47.863Z,100.00
2019-01-29T17:58:20.517Z,100.00
2019-01-29T18:01:00.109Z,100.00
2019-01-29T18:03:32.805Z,100.00
2019-01-29T18:06:05.797Z,100.00
2019-01-29T18:08:38.240Z,100.00
2019-01-29T18:11:11.347Z,100.00
2019-01-29T18:13:44.698Z,100.00
2019-01-29T18:16:17.683Z,100.00
2019-01-29T18:18:50.448Z,100.00
2019-01-29T18:21:22.580Z,100.00
2019-01-29T18:23:56.375Z,100.00
2019-01-29T18:26:29.222Z,100.00
2019-01-29T18:29:01.508Z,100.00
2019-01-29T18:31:36.025Z,100.00
2019-01-29T18:34:10.084Z,100.00
2019-01-29T18:36:42.014Z,100.00
2019-01-29T18:39:14.690Z,100.00
2019-01-29T18:41:46.785Z,100.00
2019-01-29T18:44:19.217Z,100.00
2019-01-29T18:46:51.415Z,100.00
2019-01-29T18:49:23.412Z,100.00
2019-01-29T18:51:55.501Z,100.00
2019-01-29T18:54:27.719Z,100.00
2019-01-29T18:57:00.495Z,100.00
2019-01-29T18:59:35.461Z,100.00
2019-01-29T19:02:07.770Z,100.00
2019-01-29T19:04:40.254Z,100.00
2019-01-29T19:07:12.482Z,100.00
2019-01-29T19:09:44.641Z,100.00
2019-01-29T19:12:17.994Z,100.00
2019-01-29T19:14:50.323Z,100.00
2019-01-29T19:17:22.282Z,100.00
2019-01-29T19:19:54.752Z,100.00
2019-01-29T19:22:26.713Z,100.00
2019-01-29T19:24:59.745Z,100.00
2019-01-29T19:27:32.040Z,100.00
2019-01-29T19:30:04.569Z,100.00
2019-01-29T19:32:40.005Z,100.00
2019-01-29T19:35:12.787Z,100.00
2019-01-29T19:37:45.725Z,100.00
2019-01-29T19:40:19.475Z,100.00
2019-01-29T19:42:55.461Z,100.00
2019-01-29T19:45:34.042Z,100.00
2019-01-29T19:48:08.458Z,100.00
2019-01-29T19:50:42.336Z,100.00
2019-01-29T19:53:16.152Z,100.00
2019-01-29T19:55:48.790Z,100.00
2019-01-29T19:58:31.767Z,100.00
2019-01-29T20:01:01.281Z,100.00
2019-01-29T20:03:33.442Z,100.00
2019-01-29T20:06:06.352Z,100.00
2019-01-29T20:08:38.921Z,100.00
2019-01-29T20:11:14.187Z,100.00
2019-01-29T20:13:47.110Z,100.00
2019-01-29T20:16:20.814Z,100.00
2019-01-29T20:18:54.676Z,100.00
2019-01-29T20:21:27.134Z,100.00
2019-01-29T20:23:59.445Z,100.00
2019-01-29T20:26:31.862Z,100.00
2019-01-29T20:29:04.360Z,100.00
2019-01-29T20:31:36.662Z,100.00
2019-01-29T20:34:09.442Z,100.00
2019-01-29T20:36:42.477Z,100.00
2019-01-29T20:39:15.930Z,100.00
2019-01-29T20:41:48.164Z,100.00
2019-01-29T20:44:21.485Z,100.00
2019-01-29T20:46:56.413Z,100.00
2019-01-29T20:49:29.262Z,100.00
2019-01-29T20:52:01.332Z,100.00
2019-01-29T20:54:33.750Z,100.00
2019-01-29T20:57:11.786Z,100.00
2019-01-29T20:59:44.339Z,100.00
2019-01-29T21:02:16.755Z,100.00
2019-01-29T21:04:50.065Z,100.00
2019-01-29T21:07:23.838Z,100.00
2019-01-29T21:09:59.113Z,100.00
2019-01-29T21:12:31.954Z,100.00
2019-01-29T21:15:04.899Z,100.00
2019-01-29T21:17:39.582Z,100.00
2019-01-29T21:20:15.845Z,100.00
2019-01-29T21:22:48.523Z,100.00
2019-01-29T21:25:21.398Z,100.00
2019-01-29T21:27:54.811Z,100.00
2019-01-29T21:30:33.351Z,100.00
2019-01-29T21:33:09.986Z,100.00
2019-01-29T21:35:41.994Z,100.00
2019-01-29T21:38:20.127Z,100.00
2019-01-29T21:40:52.960Z,100.00
2019-01-29T21:43:25.717Z,100.00
2019-01-29T21:45:59.082Z,100.00
2019-01-29T21:48:32.884Z,100.00
2019-01-29T21:51:07.322Z,100.00
2019-01-29T21:53:39.576Z,100.00
2019-01-29T21:56:11.678Z,100.00
2019-01-29T21:58:44.070Z,100.00
2019-01-29T22:01:16.418Z,100.00
2019-01-29T22:03:49.233Z,100.00
2019-01-29T22:06:22.827Z,100.00
2019-01-29T22:08:55.313Z,100.00
2019-01-29T22:11:27.614Z,100.00
2019-01-29T22:14:00.746Z,100.00
2019-01-29T22:16:33.823Z,100.00
2019-01-29T22:19:08.246Z,100.00
2019-01-29T22:21:41.604Z,100.00
2019-01-29T22:24:14.648Z,100.00
2019-01-29T22:26:47.342Z,100.00
2019-01-29T22:29:23.290Z,100.00
2019-01-29T22:31:55.949Z,100.00
2019-01-29T22:34:28.832Z,100.00
2019-01-29T22:37:02.304Z,100.00
2019-01-29T22:39:35.042Z,100.00
2019-01-29T22:42:08.203Z,100.00
2019-01-29T22:44:41.115Z,100.00
2019-01-29T22:47:13.524Z,100.00
2019-01-29T22:49:46.958Z,100.00
2019-01-29T22:52:18.951Z,100.00
2019-01-29T22:54:51.271Z,100.00
2019-01-29T22:57:23.492Z,100.00
2019-01-29T22:59:55.773Z,100.00
2019-01-29T23:02:28.125Z,100.00
2019-01-29T23:05:03.475Z,100.00
2019-01-29T23:07:39.497Z,100.00
2019-01-29T23:10:17.470Z,100.00
2019-01-29T23:12:49.351Z,100.00
2019-01-29T23:15:21.946Z,100.00
2019-01-29T23:17:54.402Z,100.00
2019-01-29T23:20:27.150Z,100.00
2019-01-29T23:22:59.631Z,100.00
2019-01-29T23:25:32.126Z,100.00
2019-01-29T23:28:04.666Z,100.00
2019-01-29T23:30:40.400Z,100.00
2019-01-29T23:33:12.631Z,100.00
2019-01-29T23:35:45.042Z,100.00
2019-01-29T23:38:17.225Z,100.00
2019-01-29T23:40:49.890Z,100.00
2019-01-29T23:43:21.890Z,100.00
2019-01-29T23:45:53.798Z,100.00
2019-01-29T23:48:26.676Z,100.00
2019-01-29T23:50:58.914Z,100.00
2019-01-29T23:53:30.812Z,100.00
2019-01-29T23:56:03.070Z,100.00
2019-01-29T23:58:35.014Z,100.00
